Time;durP1;ratioP1;P1;durP2;ratioP2;P2;SDS_P1;SDS_P2;PMS_P1;PMS_P2;Temp;Humidity;BMP_temperature;BMP_pressure;BME280_temperature;BME280_humidity;BME280_pressure;Samples;Min_cycle;Max_cycle;Signal;HPM_P1;HPM_P2
2022/08/13 00:00:21;;;;;;;2.92;1.67;;;23.30;49.40;;;;;;5067884;28;20052;-61
2022/08/13 00:02:51;;;;;;;1.67;1.02;;;23.30;49.80;;;;;;5070379;28;20442;-61
2022/08/13 00:05:18;;;;;;;2.38;1.05;;;23.20;51.00;;;;;;5069665;28;20137;-61
2022/08/13 00:07:44;;;;;;;1.27;1.05;;;23.30;49.70;;;;;;5074015;28;20522;-64
2022/08/13 00:10:20;;;;;;;1.08;0.80;;;23.00;49.40;;;;;;5075011;28;20044;-64
2022/08/13 00:13:00;;;;;;;0.80;0.80;;;22.90;50.20;;;;;;5074858;28;20486;-61
2022/08/13 00:15:31;;;;;;;1.10;0.70;;;23.10;49.90;;;;;;5074665;28;20109;-61
2022/08/13 00:18:01;;;;;;;2.10;0.70;;;23.00;49.70;;;;;;5073508;28;20040;-61
2022/08/13 00:20:31;;;;;;;1.20;0.85;;;22.90;49.90;;;;;;5074828;28;20040;-61
2022/08/13 00:22:58;;;;;;;1.23;0.80;;;22.80;50.10;;;;;;5075012;28;20040;-62
2022/08/13 00:25:25;;;;;;;2.00;1.52;;;22.80;51.30;;;;;;5074639;28;20048;-61
2022/08/13 00:27:56;;;;;;;2.33;1.27;;;22.80;51.20;;;;;;5074357;28;20550;-61
2022/08/13 00:30:33;;;;;;;2.03;1.40;;;22.90;52.00;;;;;;5073901;28;20487;-61
2022/08/13 00:33:12;;;;;;;3.17;1.30;;;22.70;50.30;;;;;;5074688;28;20457;-61
2022/08/13 00:35:42;;;;;;;1.67;1.00;;;22.70;54.70;;;;;;5074947;28;20067;-61
2022/08/13 00:38:13;;;;;;;3.15;1.02;;;22.70;53.60;;;;;;5074719;28;20099;-61
2022/08/13 00:40:48;;;;;;;1.15;0.90;;;22.70;49.90;;;;;;5074422;28;20184;-61
2022/08/13 00:43:14;;;;;;;1.10;0.77;;;23.10;50.20;;;;;;5073263;28;20071;-61
2022/08/13 00:45:40;;;;;;;0.90;0.80;;;22.90;50.60;;;;;;5073637;28;20110;-62
2022/08/13 00:50:52;;;;;;;7.03;1.20;;;22.90;54.30;;;;;;5073963;28;20391;-61
2022/08/13 00:53:20;;;;;;;2.72;1.20;;;22.50;51.90;;;;;;5074003;28;20045;-61
2022/08/13 00:55:49;;;;;;;2.17;1.00;;;22.60;51.40;;;;;;5073460;28;20410;-61
2022/08/13 00:58:17;;;;;;;1.45;1.00;;;22.60;51.40;;;;;;5074390;28;20041;-61
2022/08/13 01:00:47;;;;;;;3.65;0.95;;;22.70;50.20;;;;;;5074638;28;20124;-61
2022/08/13 01:03:14;;;;;;;1.60;1.02;;;22.60;50.60;;;;;;5074301;28;20043;-61
2022/08/13 01:05:43;;;;;;;1.85;1.20;;;22.70;51.10;;;;;;5074184;28;20041;-64
2022/08/13 01:08:10;;;;;;;2.75;1.20;;;22.80;51.70;;;;;;5074260;28;20404;-61
2022/08/13 01:10:37;;;;;;;9.95;1.27;;;22.90;51.40;;;;;;5077809;28;20043;-61
2022/08/13 01:13:04;;;;;;;1.83;1.00;;;22.90;51.10;;;;;;5094276;28;20047;-63
2022/08/13 01:15:31;;;;;;;1.40;1.20;;;22.90;52.90;;;;;;5094312;28;20040;-61
2022/08/13 01:17:58;;;;;;;1.38;0.98;;;22.90;52.50;;;;;;5094170;28;20129;-64
2022/08/13 01:20:27;;;;;;;2.10;1.02;;;22.90;52.50;;;;;;5094075;28;20043;-62
2022/08/13 01:22:55;;;;;;;2.65;1.10;;;23.10;50.80;;;;;;5084004;28;20044;-64
2022/08/13 01:25:25;;;;;;;2.13;1.50;;;23.10;50.50;;;;;;5075802;28;20534;-61
2022/08/13 01:27:52;;;;;;;2.13;1.02;;;23.10;50.20;;;;;;5063037;28;20146;-61
2022/08/13 01:30:20;;;;;;;1.02;0.93;;;23.10;50.50;;;;;;5063603;28;20044;-64
2022/08/13 01:32:48;;;;;;;1.13;1.02;;;23.10;50.30;;;;;;5056841;28;20123;-61
2022/08/13 01:35:16;;;;;;;1.88;1.00;;;22.90;50.60;;;;;;5060246;28;20045;-61
2022/08/13 01:37:42;;;;;;;2.22;1.17;;;22.70;51.00;;;;;;5053595;28;20082;-61
2022/08/13 01:40:10;;;;;;;2.42;1.25;;;22.60;51.40;;;;;;5053561;28;20476;-60
2022/08/13 01:42:45;;;;;;;5.28;0.93;;;22.60;52.00;;;;;;5058881;28;20427;-61
2022/08/13 01:45:13;;;;;;;1.33;0.95;;;22.70;51.50;;;;;;5058058;28;20098;-61
2022/08/13 01:50:29;;;;;;;3.08;1.08;;;22.60;51.70;;;;;;5053491;28;20067;-61
2022/08/13 01:53:16;;;;;;;1.98;1.15;;;22.70;51.70;;;;;;5053471;28;20044;-61
2022/08/13 01:55:53;;;;;;;1.73;1.25;;;22.50;53.00;;;;;;5053344;28;20683;-61
2022/08/13 01:58:24;;;;;;;2.72;1.33;;;22.50;55.80;;;;;;5058992;28;20042;-61
2022/08/13 02:00:54;;;;;;;1.63;1.05;;;22.50;53.10;;;;;;5058900;28;20079;-61
2022/08/13 02:03:21;;;;;;;0.87;0.80;;;22.50;53.00;;;;;;5058715;28;20040;-63
2022/08/13 02:05:48;;;;;;;1.67;1.02;;;22.40;52.50;;;;;;5069370;28;20048;-60
2022/08/13 02:08:19;;;;;;;4.05;0.85;;;22.30;51.40;;;;;;5071259;28;20041;-63
2022/08/13 02:10:45;;;;;;;1.70;1.08;;;22.30;51.50;;;;;;5065448;28;20159;-60
2022/08/13 02:13:20;;;;;;;1.10;0.90;;;22.30;52.20;;;;;;5067811;28;20049;-60
2022/08/13 02:15:48;;;;;;;0.85;0.77;;;22.30;51.10;;;;;;5066016;28;20036;-60
2022/08/13 02:18:17;;;;;;;1.45;0.90;;;22.20;51.80;;;;;;5069793;28;20052;-60
2022/08/13 02:20:57;;;;;;;2.05;1.00;;;22.30;51.30;;;;;;5065910;28;20531;-60
2022/08/13 02:23:30;;;;;;;2.03;1.02;;;22.10;51.80;;;;;;5066003;28;20055;-61
2022/08/13 02:25:57;;;;;;;2.20;0.93;;;22.10;52.60;;;;;;5067373;28;20056;-61
2022/08/13 02:28:23;;;;;;;3.35;0.95;;;22.00;53.30;;;;;;5069132;28;20454;-61
2022/08/13 02:30:56;;;;;;;1.27;1.00;;;22.00;53.80;;;;;;5069641;28;20131;-61
2022/08/13 02:33:22;;;;;;;2.13;1.10;;;21.90;53.80;;;;;;5065509;28;20036;-61
2022/08/13 02:35:48;;;;;;;1.27;0.98;;;21.80;54.30;;;;;;5064289;28;20048;-61
2022/08/13 02:38:16;;;;;;;2.45;1.10;;;21.70;54.70;;;;;;5069338;28;20043;-61
2022/08/13 02:43:28;;;;;;;1.30;0.93;;;21.30;54.80;;;;;;5072316;28;20059;-60
2022/08/13 02:45:55;;;;;;;3.13;1.13;;;21.00;56.70;;;;;;5073343;28;20507;-61
2022/08/13 02:48:23;;;;;;;4.47;0.93;;;20.80;55.90;;;;;;5071095;28;20043;-61
2022/08/13 02:50:55;;;;;;;2.05;1.02;;;20.80;55.80;;;;;;5073392;28;20033;-60
2022/08/13 02:53:22;;;;;;;1.95;0.88;;;20.60;55.60;;;;;;5071147;28;20497;-61
2022/08/13 02:55:48;;;;;;;1.10;0.88;;;20.60;56.20;;;;;;5073457;28;20032;-61
2022/08/13 02:58:17;;;;;;;1.98;1.08;;;20.40;56.50;;;;;;5074471;28;20116;-63
2022/08/13 03:00:48;;;;;;;1.85;1.00;;;20.20;56.60;;;;;;5053600;28;20519;-60
2022/08/13 03:03:36;;;;;;;1.35;1.13;;;20.10;57.40;;;;;;5056017;28;20041;-60
2022/08/13 03:06:05;;;;;;;1.17;0.85;;;20.30;57.00;;;;;;5062764;28;20055;-61
2022/08/13 03:08:30;;;;;;;2.00;1.42;;;20.30;56.80;;;;;;5054996;28;20092;-61
2022/08/13 03:10:57;;;;;;;1.30;0.90;;;20.30;57.30;;;;;;5054493;28;20436;-61
2022/08/13 03:13:32;;;;;;;1.13;0.93;;;20.20;57.80;;;;;;5054412;28;20408;-61
2022/08/13 03:16:01;;;;;;;1.00;0.80;;;20.30;58.00;;;;;;5086426;28;20065;-61
2022/08/13 03:18:27;;;;;;;1.15;1.05;;;20.20;57.80;;;;;;5054356;28;20131;-61
2022/08/13 03:20:54;;;;;;;1.75;1.08;;;20.30;58.60;;;;;;5053916;28;20507;-62
2022/08/13 03:23:22;;;;;;;1.58;1.15;;;20.60;57.00;;;;;;5054185;28;20080;-62
2022/08/13 03:25:50;;;;;;;2.58;1.15;;;20.50;56.10;;;;;;5054801;28;20517;-62
2022/08/13 03:28:17;;;;;;;4.90;1.25;;;20.50;57.00;;;;;;5055979;28;20396;-62
2022/08/13 03:30:43;;;;;;;1.85;0.85;;;20.30;56.40;;;;;;5053156;28;20492;-62
2022/08/13 03:33:12;;;;;;;1.52;1.13;;;20.50;56.50;;;;;;5054330;28;20033;-62
2022/08/13 03:35:39;;;;;;;1.45;1.27;;;20.30;58.50;;;;;;5054146;28;20079;-63
2022/08/13 03:38:08;;;;;;;1.45;1.00;;;20.10;57.70;;;;;;5053666;28;20035;-62
2022/08/13 03:43:20;;;;;;;1.35;1.20;;;20.10;57.20;;;;;;5054216;28;20085;-63
2022/08/13 03:45:47;;;;;;;1.63;1.10;;;20.20;56.40;;;;;;5053369;28;20137;-63
2022/08/13 03:48:16;;;;;;;2.25;0.90;;;20.30;56.10;;;;;;5053899;28;20033;-62
2022/08/13 03:50:44;;;;;;;1.08;0.98;;;20.30;56.20;;;;;;5086414;28;20052;-63
2022/08/13 03:53:12;;;;;;;1.98;1.08;;;20.20;56.40;;;;;;5057297;28;20043;-62
2022/08/13 03:55:39;;;;;;;1.27;1.00;;;20.20;56.30;;;;;;5064467;28;20040;-63
2022/08/13 03:58:07;;;;;;;1.45;1.10;;;20.10;56.70;;;;;;5073439;28;20032;-63
2022/08/13 04:00:36;;;;;;;1.88;1.25;;;20.10;56.60;;;;;;5073687;28;20047;-62
2022/08/13 04:03:23;;;;;;;1.20;1.00;;;20.20;56.10;;;;;;5073271;28;20115;-63
2022/08/13 04:05:59;;;;;;;1.27;0.95;;;20.20;55.80;;;;;;5073157;28;20681;-62
2022/08/13 04:08:35;;;;;;;1.55;1.30;;;20.40;55.80;;;;;;5073127;28;20040;-63
2022/08/13 04:11:25;;;;;;;4.40;1.00;;;20.60;55.00;;;;;;5071641;28;20036;-62
2022/08/13 04:13:52;;;;;;;3.45;1.10;;;20.80;55.60;;;;;;5062759;28;20111;-63
2022/08/13 04:16:21;;;;;;;5.05;1.40;;;20.60;55.10;;;;;;5054183;28;20107;-63
2022/08/13 04:18:48;;;;;;;5.05;1.00;;;20.70;55.50;;;;;;5053124;28;20024;-63
2022/08/13 04:21:17;;;;;;;3.67;0.90;;;20.60;55.50;;;;;;5053394;28;20052;-64
2022/08/13 04:23:43;;;;;;;1.48;1.05;;;20.60;55.60;;;;;;5055111;28;20123;-64
2022/08/13 04:26:13;;;;;;;1.75;1.40;;;20.70;55.00;;;;;;5054290;28;20061;-64
2022/08/13 04:28:45;;;;;;;1.67;1.10;;;20.60;55.00;;;;;;5051773;28;20492;-64
2022/08/13 04:31:27;;;;;;;1.25;0.98;;;20.70;54.60;;;;;;5053168;28;20049;-63
2022/08/13 04:33:54;;;;;;;1.27;1.15;;;21.20;53.60;;;;;;5052573;28;20039;-62
2022/08/13 04:36:20;;;;;;;2.42;1.30;;;21.40;53.20;;;;;;5052850;28;20090;-62
2022/08/13 04:38:46;;;;;;;1.60;1.20;;;21.40;53.10;;;;;;5052540;28;20036;-63
2022/08/13 04:41:12;;;;;;;1.65;1.08;;;21.40;53.10;;;;;;5052618;28;20488;-63
2022/08/13 04:43:38;;;;;;;1.60;1.10;;;21.40;53.50;;;;;;5053705;28;20124;-63
2022/08/13 04:46:05;;;;;;;2.80;1.10;;;21.10;55.10;;;;;;5084499;28;20158;-63
2022/08/13 04:48:35;;;;;;;1.35;1.02;;;20.70;55.70;;;;;;5052674;28;20068;-62
2022/08/13 04:51:01;;;;;;;2.37;1.10;;;20.40;56.20;;;;;;5052442;28;20090;-62
2022/08/13 04:53:35;;;;;;;3.10;1.10;;;20.30;56.20;;;;;;5052631;28;20119;-62
2022/08/13 04:56:05;;;;;;;1.92;1.30;;;20.40;55.60;;;;;;5052544;28;20045;-63
2022/08/13 04:58:35;;;;;;;1.50;1.00;;;20.30;55.80;;;;;;5084923;28;20041;-63
2022/08/13 05:01:09;;;;;;;1.40;1.10;;;20.30;56.10;;;;;;5052212;28;20071;-62
2022/08/13 05:03:41;;;;;;;2.58;1.42;;;20.20;56.30;;;;;;5051821;28;20041;-63
2022/08/13 05:06:12;;;;;;;1.25;0.88;;;20.30;56.60;;;;;;5050575;28;20045;-63
2022/08/13 05:08:41;;;;;;;1.90;1.30;;;20.40;56.20;;;;;;5053167;28;20033;-63
2022/08/13 05:11:11;;;;;;;4.18;1.30;;;20.60;56.10;;;;;;5052886;28;20076;-63
2022/08/13 05:13:37;;;;;;;1.85;1.10;;;20.80;56.00;;;;;;5052348;28;20043;-63
2022/08/13 05:16:08;;;;;;;1.52;1.13;;;20.80;56.00;;;;;;5051994;28;20968;-63
2022/08/13 05:18:37;;;;;;;1.58;1.23;;;20.70;56.40;;;;;;5052189;28;20029;-63
2022/08/13 05:21:06;;;;;;;3.40;1.20;;;20.70;56.70;;;;;;5052060;28;20060;-62
2022/08/13 05:23:37;;;;;;;2.10;1.35;;;20.70;56.70;;;;;;5084324;28;20144;-62
2022/08/13 05:26:04;;;;;;;2.78;1.20;;;20.70;56.70;;;;;;5053026;28;20052;-62
2022/08/13 05:28:32;;;;;;;2.20;1.20;;;20.90;56.80;;;;;;5053516;28;20554;-62
2022/08/13 05:30:59;;;;;;;5.03;1.27;;;21.00;56.60;;;;;;5084009;28;20139;-61
2022/08/13 05:33:27;;;;;;;2.03;1.20;;;20.90;58.70;;;;;;5084169;28;20052;-60
2022/08/13 05:35:56;;;;;;;1.20;0.90;;;20.90;58.80;;;;;;5051902;28;20131;-60
2022/08/13 05:38:24;;;;;;;3.70;0.90;;;21.00;59.50;;;;;;5051989;28;20115;-61
2022/08/13 05:40:52;;;;;;;1.42;1.15;;;21.30;60.40;;;;;;5051582;28;20057;-61
2022/08/13 05:43:22;;;;;;;10.48;1.17;;;21.50;60.00;;;;;;5051780;28;20072;-61
2022/08/13 05:45:57;;;;;;;4.68;1.38;;;21.50;57.90;;;;;;5051423;28;20058;-61
2022/08/13 05:48:26;;;;;;;1.30;1.10;;;21.60;55.30;;;;;;5051826;28;20114;-60
2022/08/13 05:50:53;;;;;;;1.45;1.10;;;21.80;55.10;;;;;;5082792;28;20049;-60
2022/08/13 05:53:19;;;;;;;1.35;1.20;;;21.90;55.90;;;;;;5092842;28;20048;-60
2022/08/13 05:55:45;;;;;;;1.52;1.13;;;22.00;55.40;;;;;;5070130;28;20041;-60
2022/08/13 05:58:12;;;;;;;1.10;1.00;;;22.20;54.30;;;;;;5071807;28;20064;-60
2022/08/13 06:03:31;;;;;;;2.28;1.20;;;22.40;54.90;;;;;;5070073;28;20580;-60
2022/08/13 06:05:59;;;;;;;1.70;1.00;;;22.40;55.40;;;;;;5070897;28;20056;-61
2022/08/13 06:08:29;;;;;;;2.40;1.10;;;22.50;56.20;;;;;;5069783;28;20037;-60
2022/08/13 06:10:57;;;;;;;3.95;1.15;;;22.70;55.20;;;;;;5071156;28;20040;-60
2022/08/13 06:13:24;;;;;;;2.08;1.20;;;22.80;56.40;;;;;;5070623;28;20071;-60
2022/08/13 06:16:00;;;;;;;2.10;1.50;;;22.90;56.30;;;;;;5071522;28;20040;-60
2022/08/13 06:18:29;;;;;;;3.15;1.13;;;23.10;55.90;;;;;;5070051;28;20090;-60
2022/08/13 06:20:58;;;;;;;3.13;1.38;;;23.30;57.00;;;;;;5069866;28;20105;-60
2022/08/13 06:23:29;;;;;;;3.28;1.30;;;23.30;55.70;;;;;;5070920;28;20037;-60
2022/08/13 06:25:57;;;;;;;4.63;1.08;;;23.30;54.30;;;;;;5069543;28;20131;-61
2022/08/13 06:28:29;;;;;;;2.25;1.15;;;23.40;53.60;;;;;;5071399;28;20745;-60
2022/08/13 06:31:07;;;;;;;2.33;1.30;;;23.40;54.90;;;;;;5071188;28;20049;-60
2022/08/13 06:33:35;;;;;;;11.23;1.70;;;23.60;57.60;;;;;;5070985;28;20071;-60
2022/08/13 06:36:13;;;;;;;8.40;1.10;;;24.00;57.80;;;;;;5069621;28;20553;-60
2022/08/13 06:38:54;;;;;;;6.05;1.45;;;24.10;57.00;;;;;;5071440;28;20040;-61
2022/08/13 06:41:22;;;;;;;3.25;1.08;;;24.30;57.80;;;;;;5069713;28;20071;-61
2022/08/13 06:43:51;;;;;;;1.77;1.10;;;24.50;56.70;;;;;;5070917;28;20051;-61
2022/08/13 06:46:22;;;;;;;1.33;1.23;;;24.20;57.40;;;;;;5070552;28;20045;-61
2022/08/13 06:48:49;;;;;;;1.70;1.20;;;24.00;55.90;;;;;;5070485;28;20041;-62
2022/08/13 06:51:17;;;;;;;2.65;1.25;;;24.10;56.20;;;;;;5070999;28;20124;-62
2022/08/13 06:53:46;;;;;;;2.63;1.00;;;23.80;55.70;;;;;;5070879;28;20162;-62
2022/08/13 06:56:23;;;;;;;4.18;1.38;;;23.90;55.20;;;;;;5071116;28;20115;-61
2022/08/13 06:58:51;;;;;;;1.30;1.10;;;24.20;55.30;;;;;;5070617;28;20068;-61
2022/08/13 07:01:23;;;;;;;2.05;1.40;;;24.40;55.00;;;;;;5069495;28;20419;-62
2022/08/13 07:03:53;;;;;;;3.53;1.38;;;24.70;56.20;;;;;;5070822;28;20440;-62
2022/08/13 07:06:26;;;;;;;2.05;1.40;;;25.00;54.70;;;;;;5069275;28;20570;-62
2022/08/13 07:08:55;;;;;;;5.03;1.40;;;24.80;55.00;;;;;;5071301;28;20044;-62
2022/08/13 07:11:26;;;;;;;6.25;1.17;;;25.00;53.90;;;;;;5072922;28;20043;-61
2022/08/13 07:13:55;;;;;;;1.33;1.15;;;25.40;54.40;;;;;;5069927;28;20076;-62
2022/08/13 07:16:24;;;;;;;2.70;1.23;;;25.70;55.40;;;;;;5070447;28;20079;-62
2022/08/13 07:18:53;;;;;;;1.50;1.20;;;25.90;55.10;;;;;;5070460;28;20047;-62
2022/08/13 07:21:24;;;;;;;1.73;1.10;;;25.60;54.40;;;;;;5069577;28;20044;-61
2022/08/13 07:23:53;;;;;;;3.75;1.10;;;25.90;54.00;;;;;;5058806;28;20037;-61
2022/08/13 07:26:22;;;;;;;1.88;1.10;;;25.60;54.00;;;;;;5050950;28;20515;-61
2022/08/13 07:28:49;;;;;;;4.28;1.20;;;25.80;53.40;;;;;;5053724;28;20526;-61
2022/08/13 07:31:22;;;;;;;1.33;1.23;;;25.80;53.30;;;;;;5054622;28;20051;-61
2022/08/13 07:33:51;;;;;;;1.80;1.20;;;26.10;52.70;;;;;;5054729;28;20538;-62
2022/08/13 07:36:20;;;;;;;1.45;1.20;;;26.10;53.00;;;;;;5055769;28;20488;-62
2022/08/13 07:38:49;;;;;;;1.88;1.10;;;26.40;53.50;;;;;;5063583;28;20044;-63
2022/08/13 07:41:15;;;;;;;4.80;0.80;;;26.60;54.00;;;;;;5072703;28;20094;-63
2022/08/13 07:43:46;;;;;;;1.00;1.00;;;26.40;53.30;;;;;;5074160;28;20044;-63
2022/08/13 07:46:15;;;;;;;2.17;0.85;;;26.60;51.20;;;;;;5074690;28;20158;-62
2022/08/13 07:48:47;;;;;;;1.73;1.43;;;26.10;53.30;;;;;;5075109;28;20067;-61
2022/08/13 07:51:20;;;;;;;1.25;0.90;;;26.90;52.30;;;;;;5074132;28;20048;-62
2022/08/13 07:53:55;;;;;;;2.03;1.00;;;27.00;51.10;;;;;;5073491;28;20110;-61
2022/08/13 07:56:32;;;;;;;2.65;1.52;;;27.30;51.50;;;;;;5072569;28;20457;-61
2022/08/13 07:59:11;;;;;;;1.63;1.13;;;28.00;51.50;;;;;;5075523;28;20117;-61
2022/08/13 08:01:52;;;;;;;2.15;1.23;;;27.90;50.60;;;;;;5075527;28;20119;-62
2022/08/13 08:04:19;;;;;;;2.30;0.90;;;27.80;50.90;;;;;;5075368;28;20055;-62
2022/08/13 08:06:47;;;;;;;1.80;1.02;;;28.20;52.50;;;;;;5074581;28;20048;-62
2022/08/13 08:09:35;;;;;;;1.52;1.20;;;28.50;51.50;;;;;;5072042;28;20036;-63
2022/08/13 08:14:50;;;;;;;1.73;1.20;;;29.00;50.80;;;;;;5073107;28;20396;-62
2022/08/13 08:17:17;;;;;;;2.20;1.20;;;29.00;50.90;;;;;;5075156;28;20040;-62
2022/08/13 08:19:47;;;;;;;2.95;1.33;;;28.60;51.00;;;;;;5073066;28;20566;-62
2022/08/13 08:22:15;;;;;;;2.10;1.27;;;28.90;51.10;;;;;;5073056;28;20044;-62
2022/08/13 08:24:48;;;;;;;4.15;1.35;;;29.30;50.60;;;;;;5074407;28;20094;-62
2022/08/13 08:27:17;;;;;;;2.40;0.93;;;28.90;50.30;;;;;;5073262;28;20496;-61
2022/08/13 08:29:48;;;;;;;2.00;1.20;;;29.00;50.90;;;;;;5073058;28;20040;-61
2022/08/13 08:32:16;;;;;;;5.03;1.35;;;29.10;50.10;;;;;;5073459;28;20473;-61
2022/08/13 08:34:45;;;;;;;1.00;0.90;;;28.70;50.30;;;;;;5072002;28;20032;-61
2022/08/13 08:42:54;;;;;;;1.48;1.20;;;28.60;50.60;;;;;;5073568;28;20089;-63
2022/08/13 08:45:26;;;;;;;1.77;1.58;;;28.70;51.00;;;;;;5073503;28;20506;-64
2022/08/13 08:47:56;;;;;;;1.67;1.10;;;28.80;51.20;;;;;;5072527;28;20072;-64
2022/08/13 08:50:27;;;;;;;2.95;1.38;;;28.90;50.50;;;;;;5073011;28;20041;-64
2022/08/13 08:55:43;;;;;;;1.60;1.02;;;28.90;51.60;;;;;;5071995;28;20561;-63
2022/08/13 08:58:11;;;;;;;1.80;1.35;;;29.10;50.90;;;;;;5072799;28;20033;-62
2022/08/13 09:00:39;;;;;;;2.20;1.35;;;29.60;50.70;;;;;;5072044;28;20048;-63
2022/08/13 09:03:08;;;;;;;1.33;1.02;;;29.20;51.30;;;;;;5072211;28;20029;-63
2022/08/13 09:05:36;;;;;;;2.50;1.08;;;29.40;51.10;;;;;;5072198;28;20522;-63
2022/08/13 09:08:08;;;;;;;1.52;1.23;;;29.10;50.80;;;;;;5072327;28;20395;-63
2022/08/13 09:10:36;;;;;;;1.10;0.98;;;29.20;51.30;;;;;;5073859;28;20115;-62
2022/08/13 09:13:03;;;;;;;2.45;1.42;;;29.80;50.50;;;;;;5072331;28;20086;-62
2022/08/13 09:15:39;;;;;;;2.60;1.00;;;30.00;50.10;;;;;;5070781;28;20040;-62
2022/08/13 09:18:05;;;;;;;2.25;1.05;;;30.00;49.20;;;;;;5072169;28;20036;-62
2022/08/13 09:20:33;;;;;;;2.28;0.82;;;29.60;49.10;;;;;;5072331;28;20040;-62
2022/08/13 09:23:13;;;;;;;5.22;1.17;;;30.00;49.20;;;;;;5071801;28;20033;-61
2022/08/13 09:25:43;;;;;;;;;;;30.40;50.10;;;;;;5072672;28;20044;-62
2022/08/13 09:28:10;;;;;;;1.20;0.98;;;30.10;47.10;;;;;;5072048;28;20359;-62
2022/08/13 09:30:36;;;;;;;0.95;0.80;;;29.90;46.50;;;;;;5070620;28;20112;-62
2022/08/13 09:33:03;;;;;;;1.42;0.93;;;30.00;46.80;;;;;;5071365;28;20044;-62
2022/08/13 09:35:33;;;;;;;1.67;0.95;;;30.20;46.60;;;;;;5071593;28;20043;-62
2022/08/13 09:38:02;;;;;;;1.38;0.90;;;30.20;47.50;;;;;;5071595;28;20036;-62
2022/08/13 09:40:38;;;;;;;1.67;0.63;;;30.30;47.10;;;;;;5071526;28;20119;-62
2022/08/13 09:43:21;;;;;;;1.25;1.00;;;29.90;47.00;;;;;;5070046;28;20464;-62
2022/08/13 09:45:49;;;;;;;6.13;1.20;;;29.80;47.20;;;;;;5071195;28;20049;-63
2022/08/13 09:48:15;;;;;;;1.67;0.88;;;29.50;47.50;;;;;;5070126;28;20036;-63
2022/08/13 09:50:42;;;;;;;1.65;0.93;;;29.60;47.10;;;;;;5070047;28;20094;-63
2022/08/13 09:53:08;;;;;;;3.63;0.90;;;29.30;47.30;;;;;;5070383;28;20033;-63
2022/08/13 09:55:37;;;;;;;1.20;0.82;;;29.00;47.00;;;;;;5071366;28;20033;-61
2022/08/13 09:58:05;;;;;;;1.65;1.20;;;29.10;47.80;;;;;;5071128;28;20036;-61
2022/08/13 10:00:34;;;;;;;1.03;0.80;;;29.40;47.60;;;;;;5071383;28;20034;-62
2022/08/13 10:03:03;;;;;;;1.10;0.82;;;29.30;47.60;;;;;;5069789;28;20861;-63
2022/08/13 10:05:34;;;;;;;0.93;0.80;;;29.80;47.20;;;;;;5071130;28;20079;-63
2022/08/13 10:08:05;;;;;;;2.67;1.00;;;29.10;47.40;;;;;;5066904;28;20047;-63
2022/08/13 10:10:32;;;;;;;1.75;0.90;;;29.40;47.30;;;;;;5060876;28;20045;-62
2022/08/13 10:13:00;;;;;;;2.67;1.25;;;29.30;47.60;;;;;;5085404;28;20114;-62
2022/08/13 10:15:29;;;;;;;1.83;0.80;;;29.20;47.70;;;;;;5051022;28;20040;-63
2022/08/13 10:18:02;;;;;;;1.00;0.88;;;29.30;47.80;;;;;;5050708;28;20104;-62
2022/08/13 10:20:34;;;;;;;1.70;0.93;;;29.30;48.10;;;;;;5050762;28;20073;-62
2022/08/13 10:23:02;;;;;;;0.75;0.73;;;29.30;48.00;;;;;;5050746;28;20041;-62
2022/08/13 10:25:29;;;;;;;4.05;0.80;;;28.80;46.60;;;;;;5061326;28;20044;-63
2022/08/13 10:27:55;;;;;;;1.35;0.75;;;28.40;47.60;;;;;;5067785;28;20511;-61
2022/08/13 10:30:28;;;;;;;2.40;0.98;;;28.40;47.30;;;;;;5069828;28;20098;-62
2022/08/13 10:32:59;;;;;;;1.02;0.70;;;29.00;47.90;;;;;;5063554;28;20047;-62
2022/08/13 10:35:27;;;;;;;2.20;0.88;;;29.10;46.70;;;;;;5049845;28;20499;-63
2022/08/13 10:37:56;;;;;;;1.30;1.13;;;28.50;47.00;;;;;;5063117;28;20131;-63
2022/08/13 10:40:26;;;;;;;0.83;0.80;;;28.60;47.70;;;;;;5066130;28;20037;-64
2022/08/13 10:42:53;;;;;;;1.30;0.68;;;29.30;46.80;;;;;;5066508;28;20048;-61
2022/08/13 10:45:24;;;;;;;1.30;0.93;;;29.80;47.30;;;;;;5068872;28;20133;-62
2022/08/13 10:48:00;;;;;;;3.45;1.05;;;29.50;46.30;;;;;;5066255;28;20040;-61
2022/08/13 10:50:29;;;;;;;0.80;0.65;;;29.60;45.80;;;;;;5067178;28;20083;-61
2022/08/13 10:52:57;;;;;;;0.65;0.60;;;29.20;45.80;;;;;;5068886;28;20082;-61
2022/08/13 10:55:24;;;;;;;1.15;0.93;;;29.60;45.00;;;;;;5069115;28;20044;-62
2022/08/13 10:57:53;;;;;;;1.02;0.77;;;30.00;44.10;;;;;;5067260;28;20105;-61
2022/08/13 11:00:22;;;;;;;0.82;0.60;;;29.70;45.60;;;;;;5068344;28;20049;-61
2022/08/13 11:02:52;;;;;;;;;;;29.30;47.30;;;;;;5071797;28;20502;-61
2022/08/13 11:05:27;;;;;;;4.07;0.77;;;29.90;46.60;;;;;;5073569;28;19912;-61
2022/08/13 11:07:53;;;;;;;2.08;0.80;;;29.50;46.90;;;;;;5071164;28;20055;-62
2022/08/13 11:10:20;;;;;;;1.27;0.60;;;29.60;46.10;;;;;;5071521;28;20060;-62
2022/08/13 11:12:50;;;;;;;2.45;0.95;;;29.00;45.70;;;;;;5073088;28;20131;-63
2022/08/13 11:15:20;;;;;;;0.77;0.70;;;29.60;45.30;;;;;;5073581;28;20033;-64
2022/08/13 11:17:50;;;;;;;1.77;0.73;;;29.70;45.70;;;;;;5067352;28;20040;-63
2022/08/13 11:20:19;;;;;;;0.90;0.80;;;29.20;46.30;;;;;;5067753;28;20040;-63
2022/08/13 11:22:56;;;;;;;0.95;0.80;;;29.90;46.10;;;;;;5070619;28;20487;-63
2022/08/13 11:25:23;;;;;;;1.35;0.88;;;29.90;45.80;;;;;;5054163;28;20045;-63
2022/08/13 11:27:52;;;;;;;2.03;0.80;;;29.90;45.60;;;;;;5053786;28;20135;-63
2022/08/13 11:30:19;;;;;;;1.98;1.25;;;29.70;45.90;;;;;;5065543;28;20040;-63
2022/08/13 11:32:45;;;;;;;1.65;0.90;;;29.30;46.80;;;;;;5072268;28;20059;-63
2022/08/13 11:35:11;;;;;;;2.45;0.77;;;29.60;46.10;;;;;;5072301;28;20051;-63
2022/08/13 11:37:39;;;;;;;0.73;0.60;;;29.70;45.60;;;;;;5073541;28;20048;-63
2022/08/13 11:40:06;;;;;;;1.30;0.98;;;29.80;46.10;;;;;;5075420;28;20040;-63
2022/08/13 11:42:33;;;;;;;0.70;0.65;;;30.10;46.20;;;;;;5070893;28;20070;-63
2022/08/13 11:44:59;;;;;;;4.45;0.80;;;30.20;45.50;;;;;;5071030;28;20135;-64
2022/08/13 11:47:26;;;;;;;0.50;0.43;;;30.30;45.30;;;;;;5073406;28;20169;-63
2022/08/13 11:49:52;;;;;;;1.38;0.90;;;30.40;45.70;;;;;;5073134;28;20028;-63
2022/08/13 11:52:18;;;;;;;1.58;0.90;;;30.00;45.50;;;;;;5073728;28;20048;-63
2022/08/13 11:54:44;;;;;;;1.92;0.90;;;30.40;45.70;;;;;;5074759;28;20816;-63
2022/08/13 11:57:10;;;;;;;1.08;0.80;;;30.50;44.70;;;;;;5073468;28;20041;-63
2022/08/13 11:59:36;;;;;;;1.10;0.70;;;30.80;45.30;;;;;;5073104;28;20053;-63
2022/08/13 12:02:03;;;;;;;1.80;0.77;;;30.90;45.30;;;;;;5072289;28;20071;-64
2022/08/13 12:04:29;;;;;;;0.60;0.60;;;30.70;44.80;;;;;;5072047;28;20045;-64
2022/08/13 12:06:57;;;;;;;0.68;0.65;;;30.70;44.20;;;;;;5072418;28;20056;-63
2022/08/13 12:09:23;;;;;;;1.67;1.40;;;30.70;44.40;;;;;;5073414;28;20522;-63
2022/08/13 12:11:49;;;;;;;1.58;0.93;;;30.70;45.10;;;;;;5072144;28;20122;-63
2022/08/13 12:14:15;;;;;;;1.17;0.80;;;30.10;45.30;;;;;;5073444;28;20569;-63
2022/08/13 12:16:42;;;;;;;0.68;0.68;;;30.40;45.80;;;;;;5073724;28;20045;-63
2022/08/13 12:19:10;;;;;;;1.00;0.85;;;30.70;45.00;;;;;;5073106;28;20040;-63
2022/08/13 12:21:37;;;;;;;0.93;0.73;;;30.50;45.30;;;;;;5073542;28;20127;-63
2022/08/13 12:24:06;;;;;;;1.65;1.00;;;30.60;45.60;;;;;;5072003;28;20047;-63
2022/08/13 12:26:32;;;;;;;0.80;0.70;;;30.20;45.40;;;;;;5073039;28;20143;-63
2022/08/13 12:28:59;;;;;;;0.73;0.70;;;30.30;45.70;;;;;;5071657;28;20036;-62
2022/08/13 12:31:26;;;;;;;1.17;0.80;;;30.50;45.50;;;;;;5064205;28;20101;-63
2022/08/13 12:33:52;;;;;;;2.50;1.00;;;30.70;45.50;;;;;;5053134;28;20033;-63
2022/08/13 12:36:18;;;;;;;1.00;0.88;;;30.80;45.10;;;;;;5051964;28;20377;-63
2022/08/13 12:38:46;;;;;;;1.20;0.90;;;30.70;45.50;;;;;;5052063;28;20055;-63
2022/08/13 12:41:12;;;;;;;1.20;0.88;;;30.90;45.40;;;;;;5051397;28;20076;-63
2022/08/13 12:43:38;;;;;;;0.98;0.88;;;30.90;44.90;;;;;;5052615;28;20040;-64
2022/08/13 12:46:04;;;;;;;1.58;1.08;;;31.00;44.70;;;;;;5052604;28;20186;-63
2022/08/13 12:48:31;;;;;;;1.55;1.08;;;30.90;45.00;;;;;;5053553;28;20495;-63
2022/08/13 12:50:57;;;;;;;0.98;0.70;;;31.10;44.90;;;;;;5051370;28;20128;-64
2022/08/13 12:53:24;;;;;;;0.90;0.68;;;31.10;44.90;;;;;;5053928;28;20068;-62
2022/08/13 12:55:50;;;;;;;2.38;1.30;;;30.80;45.20;;;;;;5052967;28;20518;-63
2022/08/13 12:58:24;;;;;;;3.42;0.85;;;31.00;44.70;;;;;;5052208;28;20029;-62
2022/08/13 13:00:54;;;;;;;0.85;0.73;;;31.00;45.20;;;;;;5052119;28;20041;-63
2022/08/13 13:03:22;;;;;;;;;;;31.20;45.00;;;;;;5051378;28;20033;-63
2022/08/13 13:05:50;;;;;;;1.30;0.73;;;31.00;45.10;;;;;;5051906;28;19924;-63
2022/08/13 13:08:27;;;;;;;2.25;0.93;;;31.40;45.10;;;;;;5052150;28;20112;-64
2022/08/13 13:10:55;;;;;;;4.38;0.90;;;31.00;45.00;;;;;;5052053;28;20044;-63
2022/08/13 13:13:25;;;;;;;0.77;0.77;;;30.70;45.20;;;;;;5052070;28;20083;-63
2022/08/13 13:15:53;;;;;;;1.42;1.00;;;30.70;45.50;;;;;;5034126;28;20044;-63
2022/08/13 13:18:22;;;;;;;1.30;0.80;;;31.00;45.20;;;;;;5052023;28;20044;-63
2022/08/13 13:20:49;;;;;;;2.72;1.15;;;31.20;45.00;;;;;;5052210;28;20060;-63
2022/08/13 13:23:21;;;;;;;2.58;1.65;;;31.20;44.70;;;;;;5051954;28;20078;-63